Meteo Giornale » Osservazioni meteo Russia » Adler
ore: 22:00 - Osservazioni Meteo Adler
Lat. 43° 26' N Lon. 39° 54' E Alt. 16 metri s.l.m.
21 °C
Molto Nuvoloso
Temp. 24 Ore
20 °C
28 °C
Nord/Nord-Est
21.6 Km/h
Dew point 19 °C
Umidità 88 %
Visibilità 10 Km
Il sole sorge alle ore 05:43
Il sole tramonta alle ore 18:58
| Data e Ora | Cielo e Fenomeni | T °C | DP °C | Um. % | Pres. hPa | Vis. km | Vento km/h | |
|---|---|---|---|---|---|---|---|---|
| Oggi h: 22:00 | Molto Nuvoloso | 21 | 19 | 88 | 1013 | 10 | N/NE 21.6 | |
| Oggi h: 21:30 | Molto Nuvoloso | 21 | 19 | 88 | 1014 | 10 | E/NE 21.6 | |
| Oggi h: 21:00 | Poco Nuvoloso | 21 | 19 | 88 | 1014 | 10 | N/NE 21.6 | |
| Oggi h: 20:30 | Poco Nuvoloso | 21 | 19 | 88 | 1013 | 10 | N/NE 18 | |
| Oggi h: 20:00 | Poco Nuvoloso | 21 | 19 | 88 | 1013 | 10 | N/NE 18 | |
| Oggi h: 19:30 | Pioggia | 22 | 19 | 83 | 1013 | 10 | E/NE 21.6 | |
| Oggi h: 19:00 | Temporale nelle vicinanze Pioggia | 22 | 19 | 83 | 1013 | 10 | N/NE 28.8 | |
| Oggi h: 18:30 | Temporale | 24 | 20 | 78 | 1012 | 10 | N/NE 25.2 | |
| Oggi h: 18:00 | Molto Nuvoloso | 25 | 19 | 69 | 1012 | 10 | N/NE 18 | |
| Oggi h: 17:30 | Molto Nuvoloso | 28 | 19 | 58 | 1012 | 10 | N 7.2 | |
| Oggi h: 17:00 | Molto Nuvoloso | 28 | 19 | 58 | 1012 | 10 | N 7.2 | |
| Oggi h: 16:30 | Molto Nuvoloso | 28 | 19 | 58 | 1012 | 10 | SO 10.8 | |
| Oggi h: 16:00 | Molto Nuvoloso | 27 | 18 | 57 | 1012 | 10 | SO 10.8 | |
| Oggi h: 15:30 | Poco Nuvoloso | 27 | 18 | 57 | 1012 | 10 | SO 10.8 | |
| Oggi h: 15:00 | Poco Nuvoloso | 28 | 18 | 54 | 1012 | 10 | S/SO 14.4 | |
| Oggi h: 14:30 | Poco Nuvoloso | 28 | 19 | 58 | 1012 | 10 | S/SO 10.8 | |
| Oggi h: 14:00 | Poco Nuvoloso | 28 | 18 | 54 | 1012 | 10 | S 10.8 | |
| Oggi h: 13:30 | Poco Nuvoloso | 28 | 19 | 58 | 1012 | 10 | S 14.4 | |
| Oggi h: 13:00 | Poco Nuvoloso | 27 | 20 | 65 | 1012 | 10 | S/SO 14.4 | |
| Oggi h: 12:30 | Poco Nuvoloso | 27 | 18 | 57 | 1012 | 10 | S/SO 18 | |
| Oggi h: 12:00 | Poco Nuvoloso | 28 | 18 | 54 | 1012 | 10 | S 14.4 | |
| Oggi h: 11:30 | Poco Nuvoloso | 28 | 20 | 61 | 1012 | 10 | S/SO 14.4 | |
| Oggi h: 11:00 | Poco Nuvoloso | 27 | 20 | 65 | 1012 | 10 | S 14.4 | |
| Oggi h: 10:30 | Sereno | 28 | 19 | 58 | 1012 | 10 | S 14.4 | |
| Oggi h: 10:00 | Sereno | 28 | 17 | 51 | 1012 | 10 | N 7.2 | |
| Oggi h: 09:30 | Sereno | 27 | 18 | 57 | 1012 | 10 | N 7.2 | |
| Oggi h: 09:00 | Sereno | 26 | 18 | 61 | 1012 | 10 | N/NE 14.4 | |
| Oggi h: 08:30 | Nuvoloso | 24 | 17 | 64 | 1012 | 10 | N/NE 18 | |
| Oggi h: 08:00 | Nuvoloso | 23 | 17 | 68 | 1012 | 10 | N/NE 21.6 | |
| Oggi h: 07:30 | Nuvoloso | 22 | 17 | 73 | 1012 | 10 | N/NE 18 | |
| Oggi h: 07:00 | Nuvoloso | 21 | 17 | 77 | 1011 | 10 | E/NE 18 | |
| Oggi h: 06:30 | Poco Nuvoloso | 21 | 17 | 77 | 1011 | 10 | N/NE 18 | |
| Oggi h: 06:00 | Sereno | 20 | 17 | 82 | 1011 | 10 | E 18 | |
| Oggi h: 05:30 | Poco Nuvoloso | 20 | 17 | 82 | 1011 | 10 | N/NE 18 | |
| Oggi h: 05:00 | Poco Nuvoloso | 20 | 17 | 82 | 1011 | 10 | N/NE 21.6 | |
| Oggi h: 04:30 | Poco Nuvoloso | 20 | 17 | 82 | 1011 | 10 | N/NE 18 | |
| Oggi h: 04:00 | Poco Nuvoloso | 20 | 17 | 82 | 1011 | 10 | N/NE 14.4 | |
| Oggi h: 03:30 | Poco Nuvoloso | 21 | 18 | 82 | 1011 | 10 | N/NE 18 | |
| Oggi h: 03:00 | Poco Nuvoloso | 21 | 17 | 77 | 1011 | 10 | N/NE 25.2 | |
| Oggi h: 02:30 | Nuvoloso | 21 | 18 | 82 | 1011 | 10 | N/NE 21.6 | |
| Oggi h: 02:00 | Poco Nuvoloso | 21 | 18 | 82 | 1011 | 10 | N/NE 18 | |
| Oggi h: 01:30 | Sereno | 21 | 18 | 82 | 1011 | 10 | N/NE 18 | |
| Oggi h: 01:00 | Sereno | 21 | 18 | 82 | 1011 | 10 | N/NE 18 | |
| Oggi h: 00:30 | Sereno | 21 | 18 | 82 | 1011 | 10 | E/NE 21.6 | |
| Oggi h: 00:00 | Sereno | 22 | 18 | 78 | 1011 | 10 | E 21.6 | |
| Ieri h: 23:30 | Sereno | 22 | 18 | 78 | 1010 | 10 | E 21.6 | |
| Ieri h: 23:00 | Sereno | 22 | 19 | 83 | 1010 | 10 | E 21.6 | |



